Αρχική σελίδα
METAR-TAF:

METAR-TAF

Αεροδρόμια :

São José dos Campos, Σάο Πάολο, Βραζιλία

γεωγραφικό πλάτος: 23-14S, γεωγραφικό μήκος: 045-52W, υψόμετρο: 646 μ

Παρών καιρός

Η αναφορά έγινε 1 ώρα και 16 λεπτά πριν, στις 19:00 UTC
Άνεμος 5 kt από Β
Θερμοκρασία 28°C
Υγρασία 45%
Πίεση 1020 hPa
Ορατότητα 10 χλμ και άνω
Δεν υπάρχουν νέφη με βάση κάτω από τα 1500 μ. και δεν υπάρχουν νέφη σωρειτομελανίτες.

METAR: SBSJ 151900Z 01005KT CAVOK 28/15 Q1020

Χρόνος: 17:16 (20:16 UTC)

Πρόγνωση Καιρού

Η αναφορά έγινε 4 ώρες και 3 λεπτά πριν, στις 16:13 UTC
Η πρόγνωση ισχύει από τις 15 στις 18 UTC έως τις 16 στις 06 UTC
Άνεμος 5 kt από Β
Ορατότητα 10 χλμ και άνω
Δεν υπάρχουν νέφη με βάση κάτω από τα 1500 μ. και δεν υπάρχουν νέφη σωρειτομελανίτες.
Καθιστάμενος
από 15 στις 22 UTC έως τις 15 στις 24 UTC
Άνεμος kt από Β

TAF: SBSJ 151613Z 1518/1606 01005KT CAVOK TX28/1518Z TN15/1605Z BECMG 1522/1524 00000KT RMK PGG

Μετεωρολογικές αναφορές και προγνώσεις για περισσότερα από 4000 αεροδρόμια (δελτία METAR και TAF).

Οι διαθέσιμοι σταθμοί απεικονίζονται στο χάρτη με κίτρινες και κόκκινες κουκκίδες.

Μετακινήστε το ποντίκι πάνω από τις κουκκίδες για να δείτε το όνομα του σταθμού.

Στη συνέχεια, κάντε κλικ για να δείτε τις μετεωρολογικές αναφορές και τις προγνώσεις καιρού.

Για να αλλάξετε το χάρτη: κάντε κλικ στα πράσινα κουμπιά με τον μαύρο σταυρό για να ζουμάρετε, στο πράσινο κουμπί με την παύλα για να αφαιρέσετε το ζουμ ή στα πράσινα βέλη για να αντιπαραβάλλετε χάρτες.


METAR-TAF: